Time;durP1;ratioP1;P1;durP2;ratioP2;P2;SDS_P1;SDS_P2;PMS_P1;PMS_P2;Temp;Humidity;BMP_temperature;BMP_pressure;BME280_temperature;BME280_humidity;BME280_pressure;Samples;Min_cycle;Max_cycle;Signal;HPM_P1;HPM_P2
2021/10/18 00:02:22;;;;;;;;;26.75;25.00;;;;;12.91;47.53;101594.41;5101839;27;45418;-61
2021/10/18 00:04:48;;;;;;;;;27.75;27.00;;;;;12.88;47.72;101594.47;5101738;27;46065;-61
2021/10/18 00:07:13;;;;;;;;;28.50;26.50;;;;;12.81;47.35;101579.56;5102051;27;45306;-61
2021/10/18 00:09:39;;;;;;;;;30.25;26.50;;;;;12.84;47.70;101584.81;5101444;27;45389;-61
2021/10/18 00:12:05;;;;;;;;;27.25;24.00;;;;;12.82;47.57;101584.81;5101962;27;45509;-61
2021/10/18 00:14:30;;;;;;;;;31.75;25.50;;;;;12.83;47.69;101588.34;5101536;27;46749;-61
2021/10/18 00:16:56;;;;;;;;;22.75;20.75;;;;;12.81;47.53;101592.75;5101567;27;45390;-61
2021/10/18 00:19:21;;;;;;;;;26.25;24.50;;;;;12.78;47.54;101582.22;5101712;27;45507;-61
2021/10/18 00:21:47;;;;;;;;;27.00;23.00;;;;;12.74;47.68;101585.78;5101704;27;45467;-61
2021/10/18 00:24:12;;;;;;;;;27.75;25.25;;;;;12.74;47.54;101591.06;5101421;27;46183;-61
2021/10/18 00:26:37;;;;;;;;;28.25;28.25;;;;;12.72;47.70;101587.59;5083309;27;45405;-61
2021/10/18 00:29:03;;;;;;;;;26.25;26.25;;;;;12.70;47.87;101594.63;5092524;27;45355;-61
2021/10/18 00:31:28;;;;;;;;;27.00;25.75;;;;;12.69;47.83;101588.47;5091926;27;45243;-61
2021/10/18 00:33:54;;;;;;;;;29.25;26.25;;;;;12.67;47.75;101599.03;5101234;27;46030;-61
2021/10/18 00:36:19;;;;;;;;;26.25;24.00;;;;;12.65;48.02;101592.91;5101549;27;45256;-61
2021/10/18 00:38:45;;;;;;;;;26.75;26.00;;;;;12.64;47.97;101595.53;5101136;27;45161;-61
2021/10/18 00:41:10;;;;;;;;;29.00;26.00;;;;;12.62;48.06;101592.94;5101401;27;45268;-61
2021/10/18 00:43:36;;;;;;;;;25.25;24.00;;;;;12.60;47.97;101596.47;5101208;27;45238;-61
2021/10/18 00:46:01;;;;;;;;;32.25;28.25;;;;;12.53;47.94;101582.47;5101045;27;45416;-61
2021/10/18 00:48:27;;;;;;;;;27.25;26.50;;;;;12.56;48.15;101589.47;5079479;28;45782;-61
2021/10/18 00:50:56;;;;;;;;;29.50;27.75;;;;;12.53;48.03;101585.13;5072638;27;45918;-61
2021/10/18 00:53:22;;;;;;;;;28.00;23.25;;;;;12.51;48.17;101593.03;5100857;27;46149;-61
2021/10/18 00:55:48;;;;;;;;;31.50;25.25;;;;;12.47;48.35;101587.81;5100996;27;45261;-61
2021/10/18 00:58:13;;;;;;;;;28.75;24.50;;;;;12.45;48.15;101584.28;5100562;27;45201;-61
2021/10/18 01:00:39;;;;;;;;;27.50;24.50;;;;;12.42;48.10;101586.97;5082762;27;45826;-68
2021/10/18 01:03:04;;;;;;;;;29.00;27.50;;;;;12.45;48.30;101600.09;5100719;27;45417;-61
2021/10/18 01:05:30;;;;;;;;;31.25;25.50;;;;;12.43;48.06;101601.91;5100710;27;45254;-61
2021/10/18 01:07:57;;;;;;;;;27.00;25.75;;;;;12.41;48.22;101601.88;5100897;27;45293;-61
2021/10/18 01:10:23;;;;;;;;;33.25;28.25;;;;;12.38;48.22;101598.41;5100973;27;45399;-61
2021/10/18 01:12:48;;;;;;;;;27.75;25.75;;;;;12.38;48.36;101601.03;5100527;27;46443;-61
2021/10/18 01:15:14;;;;;;;;;22.50;22.50;;;;;12.31;48.15;101595.84;5100798;27;45372;-61
2021/10/18 01:17:39;;;;;;;;;26.00;23.75;;;;;12.28;48.41;101593.22;5100702;27;45285;-61
2021/10/18 01:20:09;;;;;;;;;31.50;27.25;;;;;12.31;48.23;101608.13;5100744;27;45298;-61
2021/10/18 01:22:34;;;;;;;;;30.50;27.75;;;;;12.28;48.05;101597.63;5099692;27;45366;-61
2021/10/18 01:25:00;;;;;;;;;35.25;29.25;;;;;12.25;48.39;101600.25;5100567;27;45486;-61
2021/10/18 01:27:25;;;;;;;;;26.75;24.25;;;;;12.20;48.65;101600.31;5100391;27;45387;-61
2021/10/18 01:29:50;;;;;;;;;30.50;27.25;;;;;12.18;48.48;101597.66;5100713;27;45375;-61
2021/10/18 01:32:16;;;;;;;;;29.25;25.25;;;;;12.21;48.48;101602.03;5100213;27;45324;-61
2021/10/18 01:34:41;;;;;;;;;25.50;24.50;;;;;12.16;48.78;101595.94;5100836;27;45451;-61
2021/10/18 01:37:07;;;;;;;;;29.25;26.50;;;;;12.14;48.57;101601.22;5082274;27;45349;-61
2021/10/18 01:39:33;;;;;;;;;24.00;24.00;;;;;12.11;48.41;101592.47;5100704;27;45351;-61
2021/10/18 01:41:58;;;;;;;;;22.75;20.00;;;;;12.12;48.56;101599.50;5100124;27;46200;-61
2021/10/18 01:44:24;;;;;;;;;24.25;22.50;;;;;12.07;48.71;101586.34;5100368;27;45375;-61
2021/10/18 01:46:49;;;;;;;;;23.75;23.25;;;;;12.06;48.58;101587.22;5100112;27;45394;-61
2021/10/18 01:49:14;;;;;;;;;36.50;29.75;;;;;12.07;48.64;101593.38;5100404;27;45403;-61
2021/10/18 01:51:40;;;;;;;;;21.25;21.00;;;;;12.04;48.73;101586.38;5100198;27;45322;-61
2021/10/18 01:54:06;;;;;;;;;27.50;24.50;;;;;12.00;48.68;101588.16;5100430;27;45444;-61
2021/10/18 01:56:33;;;;;;;;;24.75;22.75;;;;;11.96;48.80;101575.00;5100531;27;45301;-61
2021/10/18 01:58:59;;;;;;;;;29.25;28.00;;;;;11.99;48.71;101586.38;5100085;27;45342;-61
2021/10/18 02:01:24;;;;;;;;;25.25;23.50;;;;;11.96;48.82;101583.78;5099884;27;45178;-61
2021/10/18 02:03:50;;;;;;;;;21.00;21.00;;;;;11.92;48.76;101575.88;5100136;27;45193;-61
2021/10/18 02:06:15;;;;;;;;;25.25;24.50;;;;;11.92;48.97;101573.25;5100163;27;45266;-61
2021/10/18 02:08:41;;;;;;;;;25.50;23.25;;;;;11.93;48.95;101570.59;5081925;27;45181;-62
2021/10/18 02:11:06;;;;;;;;;25.50;22.00;;;;;11.90;48.66;101575.00;5100016;27;45430;-61
2021/10/18 02:13:32;;;;;;;;;25.50;23.50;;;;;11.86;49.02;101579.41;5081684;27;45247;-61
2021/10/18 02:15:57;;;;;;;;;27.25;22.50;;;;;11.84;48.86;101581.19;5099984;27;45308;-61
2021/10/18 02:18:23;;;;;;;;;26.75;22.00;;;;;11.84;48.84;101582.06;5081922;27;45561;-61
2021/10/18 02:20:49;;;;;;;;;30.00;27.00;;;;;11.83;48.96;101582.06;5099747;27;46333;-61
2021/10/18 02:23:14;;;;;;;;;26.50;26.50;;;;;11.80;48.92;101582.09;5100064;27;45369;-61
2021/10/18 02:25:40;;;;;;;;;28.75;27.50;;;;;11.77;48.89;101575.06;5099865;27;45406;-61
2021/10/18 02:28:05;;;;;;;;;29.75;27.00;;;;;11.78;49.05;101581.22;5077975;28;45811;-61
2021/10/18 02:30:31;;;;;;;;;29.50;27.00;;;;;11.75;48.90;101573.34;5095985;27;45416;-61
2021/10/18 02:32:56;;;;;;;;;26.50;24.00;;;;;11.76;49.09;101577.72;5100572;27;45331;-61
2021/10/18 02:35:22;;;;;;;;;28.25;25.00;;;;;11.75;49.03;101575.97;5085201;27;45426;-61
2021/10/18 02:37:47;;;;;;;;;24.50;23.50;;;;;11.72;49.03;101584.75;5103332;27;45598;-61
2021/10/18 02:40:13;;;;;;;;;25.75;23.50;;;;;11.67;48.91;101579.53;5103241;27;45811;-61
2021/10/18 02:42:38;;;;;;;;;31.50;28.25;;;;;11.64;49.26;101568.16;5084784;27;45244;-61
2021/10/18 02:45:07;;;;;;;;;27.50;23.75;;;;;11.67;48.94;101570.75;5103308;27;45291;-61
2021/10/18 02:47:33;;;;;;;;;26.00;22.50;;;;;11.64;49.26;101563.75;5102690;27;45482;-61
2021/10/18 02:49:58;;;;;;;;;23.50;20.75;;;;;11.63;49.21;101562.00;5102937;27;46033;-61
2021/10/18 02:52:24;;;;;;;;;28.25;25.00;;;;;11.57;49.22;101554.13;5084658;27;45362;-61
2021/10/18 02:54:49;;;;;;;;;29.75;23.50;;;;;11.58;49.12;101558.50;5103112;27;45817;-61
2021/10/18 02:57:14;;;;;;;;;26.00;23.25;;;;;11.55;49.39;101559.41;5102841;27;45302;-61
2021/10/18 02:59:41;;;;;;;;;24.00;21.75;;;;;11.55;49.41;101553.28;5102817;27;45374;-61
2021/10/18 03:02:07;;;;;;;;;25.25;23.75;;;;;11.53;49.75;101550.66;5102865;27;45282;-61
2021/10/18 03:04:32;;;;;;;;;30.00;26.00;;;;;11.45;49.36;101531.38;5103096;27;45323;-61
2021/10/18 03:06:57;;;;;;;;;26.50;25.00;;;;;11.49;49.32;101546.28;5102907;27;45467;-61
2021/10/18 03:09:23;;;;;;;;;26.25;23.75;;;;;11.47;49.15;101545.41;5102711;27;46176;-61
2021/10/18 03:11:48;;;;;;;;;28.25;25.25;;;;;11.45;49.51;101534.00;5102781;27;45232;-61
2021/10/18 03:14:13;;;;;;;;;28.25;24.00;;;;;11.41;49.50;101523.50;5102770;27;45220;-62
2021/10/18 03:16:39;;;;;;;;;24.75;22.00;;;;;11.43;49.48;101529.63;5102534;27;45248;-62
2021/10/18 03:19:04;;;;;;;;;25.75;24.25;;;;;11.41;49.61;101531.41;5102590;27;45252;-62
2021/10/18 03:21:29;;;;;;;;;27.25;26.25;;;;;11.41;49.71;101532.28;5102709;27;45208;-61
2021/10/18 03:23:55;;;;;;;;;16.00;9.00;;;;;11.36;49.66;101527.03;5102726;27;45397;-62
2021/10/18 03:26:20;;;;;;;;;24.50;23.50;;;;;11.39;49.50;101539.31;5102706;27;45212;-62
2021/10/18 03:28:45;;;;;;;;;30.75;26.00;;;;;11.37;49.71;101544.59;5102088;27;45450;-62
2021/10/18 03:31:11;;;;;;;;;24.00;21.50;;;;;11.33;49.63;101540.22;5102322;27;45202;-62
2021/10/18 03:33:40;;;;;;;;;24.50;22.50;;;;;11.34;49.55;101544.59;5102446;27;45418;-62
2021/10/18 03:36:08;;;;;;;;;21.50;20.50;;;;;11.35;49.72;101556.00;5102763;27;45464;-62
2021/10/18 03:38:33;;;;;;;;;24.00;22.50;;;;;11.28;49.71;101543.75;5102125;27;46072;-62
2021/10/18 03:41:00;;;;;;;;;26.00;22.75;;;;;11.31;49.66;101555.13;5102567;27;45161;-62
2021/10/18 03:43:26;;;;;;;;;24.25;22.00;;;;;11.24;49.67;101540.25;5102169;27;45255;-62
2021/10/18 03:45:51;;;;;;;;;26.75;24.00;;;;;11.27;49.72;101553.41;5082845;27;45311;-62
2021/10/18 03:48:17;;;;;;;;;26.75;23.50;;;;;11.27;49.75;101557.78;5102093;27;45259;-62
2021/10/18 03:50:42;;;;;;;;;30.50;27.75;;;;;11.26;49.97;101567.44;5102238;27;45449;-62
2021/10/18 03:53:08;;;;;;;;;26.75;23.25;;;;;11.22;49.83;101557.81;5102337;27;45453;-61
2021/10/18 03:55:33;;;;;;;;;25.75;21.75;;;;;11.23;49.89;101556.91;5102170;27;45501;-62
2021/10/18 03:57:58;;;;;;;;;25.00;24.00;;;;;11.22;49.87;101563.06;5082459;27;47059;-62
2021/10/18 04:00:24;;;;;;;;;27.00;22.75;;;;;11.24;49.92;101566.56;5080115;28;45375;-62
2021/10/18 04:02:50;;;;;;;;;27.00;25.25;;;;;11.24;49.95;101563.94;5097288;27;45595;-61
2021/10/18 04:05:15;;;;;;;;;27.75;23.75;;;;;11.25;50.08;101564.81;5101987;27;45227;-62
2021/10/18 04:07:45;;;;;;;;;24.00;24.00;;;;;11.23;50.05;101570.06;5101785;27;45321;-62
2021/10/18 04:10:10;;;;;;;;;16.50;16.00;;;;;11.21;50.13;101570.06;5102007;27;45323;-62
2021/10/18 04:12:36;;;;;;;;;25.50;24.00;;;;;11.24;50.04;101573.59;5101778;27;45239;-61
2021/10/18 04:15:02;;;;;;;;;22.25;20.00;;;;;11.20;50.06;101567.47;5101817;27;45523;-62
2021/10/18 04:17:27;;;;;;;;;30.75;25.75;;;;;11.20;50.08;101565.69;5101527;27;45452;-61
2021/10/18 04:19:52;;;;;;;;;21.50;17.75;;;;;11.20;50.17;101572.72;5101809;27;45316;-62
2021/10/18 04:22:18;;;;;;;;;23.25;21.50;;;;;11.20;50.27;101570.09;5101779;27;46029;-62
2021/10/18 04:24:43;;;;;;;;;26.50;24.00;;;;;11.21;50.20;101580.59;5083173;27;45477;-62
2021/10/18 04:27:08;;;;;;;;;25.50;23.75;;;;;11.15;50.27;101570.09;5101224;27;46239;-62
2021/10/18 04:29:34;;;;;;;;;24.50;22.00;;;;;11.21;50.16;101580.59;5083127;27;45952;-62
2021/10/18 04:31:59;;;;;;;;;26.50;23.25;;;;;11.22;50.26;101581.50;5101185;27;45322;-62
2021/10/18 04:34:26;;;;;;;;;24.25;22.25;;;;;11.21;50.43;101585.00;5101503;27;45469;-61
2021/10/18 04:36:52;;;;;;;;;27.00;25.00;;;;;11.16;50.64;101587.63;5101302;27;45341;-62
2021/10/18 04:39:18;;;;;;;;;23.75;21.50;;;;;11.17;50.54;101589.41;5101465;27;45278;-62
2021/10/18 04:41:44;;;;;;;;;20.75;19.25;;;;;11.18;50.28;101591.16;5101367;27;45217;-62
2021/10/18 04:44:09;;;;;;;;;24.75;22.75;;;;;11.17;50.46;101586.75;5101193;27;45185;-62
2021/10/18 04:46:34;;;;;;;;;21.25;21.25;;;;;11.14;50.75;101594.66;5082435;27;48299;-62
2021/10/18 04:49:00;;;;;;;;;26.75;24.25;;;;;11.17;50.56;101601.66;5101447;27;45306;-61
2021/10/18 04:51:25;;;;;;;;;22.00;22.00;;;;;11.14;50.75;101599.91;5086105;27;45407;-62
2021/10/18 04:53:50;;;;;;;;;28.50;25.25;;;;;11.15;50.59;101601.66;5080739;27;45356;-62
2021/10/18 04:56:16;;;;;;;;;21.25;21.00;;;;;11.13;50.69;101600.81;5079281;28;46108;-62
2021/10/18 04:58:41;;;;;;;;;26.25;24.00;;;;;11.15;50.66;101606.06;5080418;27;45500;-62
2021/10/18 05:01:06;;;;;;;;;25.75;23.00;;;;;11.11;50.60;101596.44;5080286;28;45327;-62
2021/10/18 05:03:32;;;;;;;;;27.00;25.00;;;;;11.10;50.68;101599.94;5080653;28;45318;-63
2021/10/18 05:05:57;;;;;;;;;26.50;22.75;;;;;11.13;50.51;101613.06;5080277;27;45835;-62
2021/10/18 05:08:23;;;;;;;;;26.00;23.25;;;;;11.11;50.75;101620.13;5080456;28;45311;-64
2021/10/18 05:10:48;;;;;;;;;27.00;23.75;;;;;11.05;50.63;101616.59;5080593;27;45423;-61
2021/10/18 05:13:17;;;;;;;;;16.50;15.50;;;;;11.12;50.82;101624.47;5080382;27;45378;-64
2021/10/18 05:15:43;;;;;;;;;25.00;20.75;;;;;11.11;50.67;101625.38;5080020;27;45420;-62
2021/10/18 05:18:09;;;;;;;;;22.75;19.75;;;;;11.07;50.89;101619.25;5080376;28;45218;-66
2021/10/18 05:20:35;;;;;;;;;24.00;20.50;;;;;11.09;50.50;101627.13;5076737;27;45267;-63
2021/10/18 05:23:01;;;;;;;;;24.50;22.75;;;;;11.08;50.80;101625.38;5100798;27;45243;-64
2021/10/18 05:25:27;;;;;;;;;26.50;24.25;;;;;11.05;50.89;101627.09;5100405;27;46353;-64
2021/10/18 05:27:53;;;;;;;;;24.00;22.25;;;;;11.08;50.75;101625.38;5100305;27;45477;-65
2021/10/18 05:30:24;;;;;;;;;21.75;18.25;;;;;11.08;50.63;101625.38;5100510;27;45400;-64
2021/10/18 05:32:51;;;;;;;;;23.25;21.25;;;;;11.04;51.03;101620.13;5100434;27;45445;-66
2021/10/18 05:35:17;;;;;;;;;23.75;21.75;;;;;11.02;50.91;101621.00;5100296;27;47111;-67
2021/10/18 05:37:44;;;;;;;;;23.75;19.00;;;;;11.00;50.79;101618.34;5082140;27;45525;-65
2021/10/18 05:40:10;;;;;;;;;26.75;24.25;;;;;11.02;51.00;101623.63;5100623;27;45388;-66
2021/10/18 05:42:35;;;;;;;;;30.00;23.75;;;;;11.04;51.02;101627.13;5100466;27;45540;-65
2021/10/18 05:45:01;;;;;;;;;22.50;20.50;;;;;11.03;51.16;101631.53;5099975;27;46406;-65
2021/10/18 05:47:26;;;;;;;;;27.75;24.25;;;;;11.02;50.88;101629.75;5081118;27;46818;-63
2021/10/18 05:49:52;;;;;;;;;25.25;22.75;;;;;11.03;50.93;101635.88;5100151;27;45348;-64
2021/10/18 05:52:18;;;;;;;;;26.00;22.50;;;;;11.02;51.22;101628.91;5100442;27;45435;-63
2021/10/18 05:54:44;;;;;;;;;24.25;20.75;;;;;11.01;51.06;101625.38;5100163;27;45384;-64
2021/10/18 05:57:09;;;;;;;;;23.50;22.25;;;;;11.01;51.15;101625.38;5100163;27;45341;-63
2021/10/18 05:59:35;;;;;;;;;26.00;24.50;;;;;11.00;51.09;101626.25;5100111;27;45268;-64
2021/10/18 06:02:00;;;;;;;;;26.75;22.50;;;;;10.98;51.20;101621.88;5100019;27;45292;-64
2021/10/18 06:04:26;;;;;;;;;27.00;26.00;;;;;10.99;51.21;101621.88;5081679;27;47055;-63
2021/10/18 06:06:51;;;;;;;;;22.25;21.00;;;;;11.00;50.98;101626.25;5099952;27;45236;-64
2021/10/18 06:09:16;;;;;;;;;23.25;21.75;;;;;11.01;51.26;101632.41;5103280;27;45228;-64
2021/10/18 06:11:42;;;;;;;;;29.00;24.50;;;;;11.00;51.21;101633.28;5104112;27;45490;-64
2021/10/18 06:14:08;;;;;;;;;28.25;23.25;;;;;10.98;51.16;101638.53;5103697;27;45383;-63
2021/10/18 06:16:34;;;;;;;;;30.50;27.50;;;;;10.98;50.98;101638.53;5103589;27;45391;-63
2021/10/18 06:18:59;;;;;;;;;24.75;23.00;;;;;10.92;51.27;101633.28;5103842;27;45338;-64
2021/10/18 06:21:25;;;;;;;;;28.75;26.50;;;;;10.98;51.26;101654.31;5103747;27;45264;-63
2021/10/18 06:23:50;;;;;;;;;28.25;26.00;;;;;10.97;51.00;101649.03;5103380;27;46180;-63
2021/10/18 06:26:16;;;;;;;;;27.75;25.00;;;;;10.95;51.26;101654.31;5103523;27;45521;-63
2021/10/18 06:28:41;;;;;;;;;25.75;22.75;;;;;10.96;50.79;101661.31;5103308;27;45492;-64
2021/10/18 06:31:07;;;;;;;;;27.25;26.25;;;;;10.87;51.21;101643.81;5085016;27;45504;-63
2021/10/18 06:33:34;;;;;;;;;29.75;27.50;;;;;10.96;51.21;101652.56;5103212;27;45975;-62
2021/10/18 06:35:59;;;;;;;;;27.50;23.75;;;;;10.94;51.25;101654.31;5077619;28;45360;-64
2021/10/18 06:38:25;;;;;;;;;29.25;28.25;;;;;10.97;51.19;101660.47;5082810;27;45598;-64
2021/10/18 06:40:51;;;;;;;;;27.25;23.75;;;;;10.93;51.42;101653.47;5083079;27;45223;-63
2021/10/18 06:43:18;;;;;;;;;34.25;29.25;;;;;10.97;51.40;101657.81;5078742;27;48147;-64
2021/10/18 06:45:44;;;;;;;;;31.25;26.75;;;;;10.97;51.31;101660.47;5103064;27;45373;-64
2021/10/18 06:48:10;;;;;;;;;27.50;26.75;;;;;10.95;51.51;101662.19;5084597;27;45280;-64
2021/10/18 06:50:37;;;;;;;;;26.75;26.75;;;;;10.96;51.37;101660.47;5103137;27;45319;-64
2021/10/18 06:53:04;;;;;;;;;29.00;26.75;;;;;10.95;51.43;101653.44;5103011;27;46064;-64
2021/10/18 06:55:30;;;;;;;;;29.00;26.50;;;;;10.97;51.48;101663.09;5103025;27;45178;-64
2021/10/18 06:57:59;;;;;;;;;24.50;23.25;;;;;10.96;51.61;101658.69;5102880;27;45302;-64
2021/10/18 07:00:25;;;;;;;;;29.75;25.00;;;;;10.96;51.43;101663.09;5102544;27;45400;-64
2021/10/18 07:02:50;;;;;;;;;26.50;25.50;;;;;10.98;51.45;101664.84;5102917;27;45379;-64
2021/10/18 07:05:15;;;;;;;;;36.25;31.00;;;;;10.98;51.63;101656.06;5102947;27;45353;-64
2021/10/18 07:07:41;;;;;;;;;31.25;27.00;;;;;11.00;51.75;101668.31;5102840;27;45320;-64
2021/10/18 07:10:07;;;;;;;;;28.75;25.50;;;;;11.00;51.63;101660.44;5102934;27;45335;-64
2021/10/18 07:12:34;;;;;;;;;31.00;27.50;;;;;11.03;51.90;101675.34;5102571;27;45304;-64
2021/10/18 07:15:01;;;;;;;;;35.00;32.00;;;;;11.02;51.84;101666.59;5102711;27;45252;-64
2021/10/18 07:17:27;;;;;;;;;25.25;23.50;;;;;11.06;51.76;101668.31;5084338;27;45272;-64
2021/10/18 07:19:54;;;;;;;;;26.50;24.00;;;;;11.06;51.81;101673.59;5101554;27;45458;-64
2021/10/18 07:22:25;;;;;;;;;23.25;22.50;;;;;11.08;51.71;101683.22;5102606;27;45571;-64
2021/10/18 07:24:51;;;;;;;;;31.25;30.00;;;;;11.11;51.80;101688.50;5102711;27;45296;-64
2021/10/18 07:27:17;;;;;;;;;33.50;29.50;;;;;11.12;51.90;101680.59;5083897;27;45326;-64
2021/10/18 07:29:42;;;;;;;;;27.75;25.75;;;;;11.16;51.98;101682.34;5102635;27;45357;-64
2021/10/18 07:32:07;;;;;;;;;25.00;25.00;;;;;11.16;51.82;101679.72;5083911;27;46294;-64
2021/10/18 07:34:33;;;;;;;;;31.75;28.00;;;;;11.20;52.03;101670.06;5102301;27;45333;-64
2021/10/18 07:36:58;;;;;;;;;27.25;22.50;;;;;11.25;52.16;101681.44;5102513;27;45338;-64
2021/10/18 07:39:25;;;;;;;;;24.25;23.00;;;;;11.29;52.03;101677.06;5102284;27;45494;-63
2021/10/18 07:41:55;;;;;;;;;31.75;27.75;;;;;11.32;52.07;101688.47;5102098;27;46158;-63
2021/10/18 07:44:21;;;;;;;;;31.75;25.25;;;;;11.34;52.08;101677.94;5102152;27;45295;-64
2021/10/18 07:46:47;;;;;;;;;28.50;25.00;;;;;11.38;52.05;101679.66;5101979;27;45284;-63
2021/10/18 07:49:13;;;;;;;;;31.50;26.50;;;;;11.40;52.18;101672.66;5102155;27;45335;-63
2021/10/18 07:51:39;;;;;;;;;28.25;25.00;;;;;11.50;52.24;101686.66;5083694;27;48514;-63
2021/10/18 07:54:05;;;;;;;;;31.75;26.00;;;;;11.55;52.35;101679.63;5083824;27;45857;-63
2021/10/18 07:56:31;;;;;;;;;30.75;27.00;;;;;11.61;52.41;101676.09;5102115;27;45560;-63
2021/10/18 07:58:57;;;;;;;;;35.75;29.50;;;;;11.65;52.55;101660.28;5102092;27;45454;-63
2021/10/18 08:01:22;;;;;;;;;33.50;26.75;;;;;11.69;52.05;101655.88;5101703;27;45379;-64
2021/10/18 08:03:48;;;;;;;;;28.25;25.75;;;;;11.78;52.48;101661.09;5102009;27;45222;-64
2021/10/18 08:06:14;;;;;;;;;29.25;27.00;;;;;11.85;52.50;101664.59;5101874;27;45277;-64
2021/10/18 08:08:49;;;;;;;;;27.75;24.75;;;;;11.90;52.61;101675.97;5102138;27;45312;-63
2021/10/18 08:11:14;;;;;;;;;25.50;24.25;;;;;11.96;52.71;101673.34;5101643;27;46107;-64
2021/10/18 08:13:39;;;;;;;;;29.75;27.50;;;;;12.02;52.77;101683.84;5101516;27;45267;-64
2021/10/18 08:16:05;;;;;;;;;28.75;26.75;;;;;12.11;52.71;101685.56;5101442;27;45508;-63
2021/10/18 08:18:31;;;;;;;;;28.75;25.25;;;;;12.21;52.96;101686.38;5101961;27;45250;-63
2021/10/18 08:20:56;;;;;;;;;28.25;26.25;;;;;12.25;52.73;101685.50;5101418;27;47000;-64
2021/10/18 08:23:22;;;;;;;;;26.75;26.25;;;;;12.30;52.69;101683.69;5101700;27;45395;-64
2021/10/18 08:25:47;;;;;;;;;26.25;25.25;;;;;12.44;52.85;101694.16;5101631;27;45889;-64
2021/10/18 08:28:13;;;;;;;;;29.00;26.25;;;;;12.53;52.76;101695.84;5101458;27;45303;-64
2021/10/18 08:30:39;;;;;;;;;31.50;27.75;;;;;12.62;53.00;101710.72;5079228;28;47710;-64
2021/10/18 08:33:05;;;;;;;;;29.00;27.00;;;;;12.70;52.94;101708.03;5091728;27;45433;-64
2021/10/18 08:35:32;;;;;;;;;36.00;27.75;;;;;12.77;52.89;101713.25;5101326;27;45427;-64
2021/10/18 08:38:18;;;;;;;;;32.25;30.75;;;;;12.86;53.08;101703.50;5101577;27;45267;-64
2021/10/18 08:45:52;;;;;;;;;36.50;30.00;;;;;13.12;53.09;101704.16;5101173;27;45511;-64
2021/10/18 08:48:18;;;;;;;;;32.50;30.75;;;;;13.22;53.48;101699.66;5064774;27;45270;-63
2021/10/18 08:50:44;;;;;;;;;33.75;30.25;;;;;13.30;53.30;101699.56;5082929;27;48311;-63
2021/10/18 08:53:10;;;;;;;;;31.75;28.75;;;;;13.41;53.05;101699.47;5101156;27;45235;-63
2021/10/18 08:55:36;;;;;;;;;35.25;27.50;;;;;13.50;53.32;101691.47;5101355;27;45236;-63
2021/10/18 08:58:04;;;;;;;;;32.50;25.75;;;;;13.62;53.28;101682.53;5100939;27;45558;-63
2021/10/18 09:00:56;;;;;;;;;25.00;24.00;;;;;13.73;53.42;101677.13;5100452;27;45415;-63
2021/10/18 09:03:23;;;;;;;;;26.50;24.50;;;;;13.88;53.22;101686.63;5082825;27;45515;-63
2021/10/18 09:05:50;;;;;;;;;22.00;22.00;;;;;13.93;53.07;101680.38;5079353;28;45233;-63
2021/10/18 09:08:34;;;;;;;;;23.25;22.75;;;;;13.99;53.40;101676.78;5100600;27;45636;-63
2021/10/18 09:11:14;;;;;;;;;25.25;24.00;;;;;14.14;52.92;101675.69;5100724;27;46374;-63
2021/10/18 09:14:00;;;;;;;;;29.00;25.50;;;;;14.27;53.16;101671.97;5082164;27;45342;-63
2021/10/18 09:16:29;;;;;;;;;25.50;24.00;;;;;14.39;53.33;101675.31;5100619;27;45243;-63
2021/10/18 09:19:05;;;;;;;;;23.75;23.25;;;;;14.48;53.52;101677.84;5100664;27;45557;-63
2021/10/18 09:21:44;;;;;;;;;26.25;25.00;;;;;14.58;53.47;101678.56;5100726;27;45339;-62
2021/10/18 09:24:12;;;;;;;;;23.75;22.50;;;;;14.61;53.04;101655.56;5100650;27;45481;-63
2021/10/18 09:26:40;;;;;;;;;27.25;23.00;;;;;14.77;53.38;101664.16;5100722;27;45451;-63
2021/10/18 09:29:09;;;;;;;;;25.75;24.00;;;;;14.87;53.23;101656.09;5097657;27;45394;-63
2021/10/18 09:31:35;;;;;;;;;27.50;23.25;;;;;14.94;52.96;101653.28;5100337;27;46191;-63
2021/10/18 09:34:05;;;;;;;;;25.25;25.00;;;;;15.05;53.18;101662.81;5100445;27;45552;-63
2021/10/18 09:36:32;;;;;;;;;30.75;26.50;;;;;15.13;53.39;101663.53;5100682;27;45460;-63
2021/10/18 09:39:24;;;;;;;;;23.75;21.50;;;;;15.23;53.01;101649.25;5100419;27;45502;-63
2021/10/18 09:41:59;;;;;;;;;41.75;34.00;;;;;15.31;53.04;101649.09;5100048;27;47033;-63
2021/10/18 09:44:46;;;;;;;;;24.25;22.50;;;;;15.34;52.93;101651.66;5103665;27;45248;-63
2021/10/18 09:47:41;;;;;;;;;25.75;23.75;;;;;15.47;52.90;101660.25;5103931;27;45401;-63
2021/10/18 10:52:41;;;;;;;;;26.25;24.75;;;;;16.70;53.10;101675.22;5103054;27;45316;-63
2021/10/18 10:55:21;;;;;;;;;23.50;21.75;;;;;16.77;53.07;101681.22;5102900;27;45252;-60
2021/10/18 10:57:48;;;;;;;;;26.00;24.00;;;;;16.78;52.90;101659.09;5102687;27;45734;-63
2021/10/18 11:00:41;;;;;;;;;21.75;20.50;;;;;16.96;52.87;101667.53;5102268;27;46166;-62
2021/10/18 11:03:39;;;;;;;;;25.75;20.75;;;;;17.09;53.19;101666.25;5098860;27;45516;-63
2021/10/18 11:06:14;;;;;;;;;23.75;21.75;;;;;17.22;52.81;101672.13;5102973;27;45347;-62
2021/10/18 11:08:46;;;;;;;;;21.50;20.00;;;;;17.36;53.31;101666.44;5102837;27;45252;-63
2021/10/18 11:11:14;;;;;;;;;25.00;21.75;;;;;17.51;52.74;101659.81;5102457;27;46252;-62
2021/10/18 11:13:58;;;;;;;;;23.00;22.00;;;;;17.65;53.02;101649.66;5102613;27;45218;-62
2021/10/18 11:16:24;;;;;;;;;22.50;20.00;;;;;17.83;53.19;101652.69;5102686;27;45582;-62
2021/10/18 11:18:54;;;;;;;;;23.50;20.00;;;;;17.95;52.94;101639.06;5081693;27;45433;-62
2021/10/18 11:21:33;;;;;;;;;23.75;19.75;;;;;18.11;52.73;101630.59;5102320;27;46193;-62
2021/10/18 11:23:58;;;;;;;;;20.00;17.75;;;;;18.25;53.32;101630.13;5102351;27;45228;-62
2021/10/18 11:26:25;;;;;;;;;17.50;15.50;;;;;18.37;53.14;101629.75;5084288;27;45389;-62
2021/10/18 11:28:53;;;;;;;;;16.00;15.25;;;;;18.48;53.07;101627.59;5102096;27;45235;-62
2021/10/18 11:31:18;;;;;;;;;20.25;19.75;;;;;18.59;53.16;101626.38;5102072;27;46244;-62
2021/10/18 11:34:08;;;;;;;;;17.50;17.50;;;;;18.72;52.71;101638.34;5102158;27;45456;-62
2021/10/18 11:36:35;;;;;;;;;29.75;24.50;;;;;18.83;52.61;101633.53;5102509;27;45349;-62
2021/10/18 11:39:22;;;;;;;;;15.75;15.75;;;;;18.97;52.89;101632.22;5102132;27;45230;-61
2021/10/18 11:42:04;;;;;;;;;118.67;105.67;;;;;19.07;52.83;101622.97;5102142;27;46329;-62
2021/10/18 11:44:48;;;;;;;;;56.75;44.75;;;;;19.20;52.43;101635.84;5102104;27;45231;-62
2021/10/18 11:47:24;;;;;;;;;26.00;23.50;;;;;19.26;52.58;101628.47;5102051;27;45302;-62
2021/10/18 11:50:06;;;;;;;;;14.50;13.00;;;;;19.38;52.62;101623.63;5102068;27;45254;-62
2021/10/18 11:52:32;;;;;;;;;15.00;14.00;;;;;19.44;52.61;101620.72;5101861;27;46145;-62
2021/10/18 11:54:58;;;;;;;;;22.75;19.50;;;;;19.51;52.29;101616.91;5102081;27;45303;-62
2021/10/18 11:57:25;;;;;;;;;16.25;14.50;;;;;19.58;52.17;101612.22;5083588;27;45281;-62
2021/10/18 11:59:50;;;;;;;;;16.50;16.50;;;;;19.63;52.67;101604.91;5101938;27;45449;-62
2021/10/18 12:02:23;;;;;;;;;16.00;15.75;;;;;19.67;52.14;101601.19;5083230;27;46627;-63
2021/10/18 12:04:59;;;;;;;;;21.25;18.00;;;;;19.73;51.98;101590.28;5101847;27;45210;-62
2021/10/18 12:07:51;;;;;;;;;21.00;18.50;;;;;19.75;52.50;101583.09;5082941;27;45270;-62
2021/10/18 12:10:26;;;;;;;;;19.25;18.75;;;;;19.79;52.37;101574.03;5097818;27;45575;-62
2021/10/18 12:13:34;;;;;;;;;18.50;17.25;;;;;19.79;51.90;101576.72;5101278;27;46377;-62
2021/10/18 12:16:02;;;;;;;;;17.75;16.75;;;;;19.84;52.44;101565.03;4998340;28;45595;-62
2021/10/18 12:18:29;;;;;;;;;20.50;19.00;;;;;19.88;51.87;101578.16;4999059;28;45492;-60
2021/10/18 12:21:00;;;;;;;;;19.25;19.25;;;;;19.95;51.69;101582.34;5044989;27;45384;-61